createdAt,value
2022-11-24T00:01:07.926Z,19.21
2022-11-24T00:03:34.591Z,19.18
2022-11-24T00:06:07.643Z,19.15
2022-11-24T00:08:34.941Z,19.12
2022-11-24T00:11:10.630Z,19.10
2022-11-24T00:13:40.917Z,19.11
2022-11-24T00:16:13.499Z,19.06
2022-11-24T00:18:41.923Z,19.06
2022-11-24T00:21:09.081Z,19.03
2022-11-24T00:23:36.540Z,19.00
2022-11-24T00:26:08.174Z,18.95
2022-11-24T00:28:35.881Z,18.97
2022-11-24T00:31:03.009Z,18.94
2022-11-24T00:33:29.954Z,18.93
2022-11-24T00:36:00.620Z,18.93
2022-11-24T00:38:27.446Z,18.91
2022-11-24T00:40:54.114Z,18.90
2022-11-24T00:43:20.635Z,18.89
2022-11-24T00:45:47.343Z,18.87
2022-11-24T00:48:14.198Z,18.87
2022-11-24T00:50:40.828Z,18.83
2022-11-24T00:53:07.470Z,18.82
2022-11-24T00:55:34.099Z,18.82
2022-11-24T00:58:00.681Z,18.79
2022-11-24T01:00:27.382Z,18.79
2022-11-24T01:02:54.044Z,18.76
2022-11-24T01:05:21.003Z,18.76
2022-11-24T01:07:47.654Z,18.76
2022-11-24T01:10:14.358Z,18.76
2022-11-24T01:12:40.934Z,18.73
2022-11-24T01:15:07.882Z,18.73
2022-11-24T01:17:34.412Z,18.72
2022-11-24T01:20:00.996Z,18.71
2022-11-24T01:22:27.678Z,18.69
2022-11-24T01:24:54.266Z,18.67
2022-11-24T01:27:20.855Z,18.68
2022-11-24T01:29:47.418Z,18.65
2022-11-24T01:32:13.926Z,18.65
2022-11-24T01:34:40.465Z,18.62
2022-11-24T01:37:07.004Z,18.62
2022-11-24T01:39:33.659Z,18.60
2022-11-24T01:42:03.270Z,18.59
2022-11-24T01:44:31.194Z,18.59
2022-11-24T01:47:02.871Z,18.58
2022-11-24T01:49:41.338Z,18.55
2022-11-24T01:52:18.223Z,18.55
2022-11-24T01:55:07.375Z,18.53
2022-11-24T01:57:38.539Z,18.52
2022-11-24T02:00:11.648Z,18.50
2022-11-24T02:02:38.340Z,18.50
2022-11-24T02:05:28.574Z,18.50
2022-11-24T02:08:00.398Z,18.49
2022-11-24T02:10:26.994Z,18.46
2022-11-24T02:12:56.072Z,18.46
2022-11-24T02:15:22.770Z,18.45
2022-11-24T02:17:49.275Z,18.46
2022-11-24T02:20:17.203Z,18.45
2022-11-24T02:22:49.554Z,18.46
2022-11-24T02:25:16.002Z,18.44
2022-11-24T02:27:49.393Z,18.43
2022-11-24T02:30:19.033Z,18.42
2022-11-24T02:32:45.660Z,18.42
2022-11-24T02:35:13.381Z,18.40
2022-11-24T02:37:39.990Z,18.41
2022-11-24T02:40:07.326Z,18.40
2022-11-24T02:42:38.513Z,18.38
2022-11-24T02:45:05.625Z,18.38
2022-11-24T02:47:32.203Z,18.35
2022-11-24T02:49:59.042Z,18.34
2022-11-24T02:52:25.687Z,18.33
2022-11-24T02:54:52.170Z,18.34
2022-11-24T02:57:18.803Z,18.33
2022-11-24T02:59:46.628Z,18.34
2022-11-24T03:02:13.223Z,18.32
2022-11-24T03:04:39.731Z,18.31
2022-11-24T03:07:06.445Z,18.31
2022-11-24T03:09:33.028Z,18.30
2022-11-24T03:11:59.566Z,18.29
2022-11-24T03:14:26.101Z,18.28
2022-11-24T03:16:52.623Z,18.27
2022-11-24T03:19:19.122Z,18.28
2022-11-24T03:21:45.647Z,18.25
2022-11-24T03:24:12.171Z,18.26
2022-11-24T03:26:38.762Z,18.26
2022-11-24T03:29:05.343Z,18.23
2022-11-24T03:31:32.010Z,18.21
2022-11-24T03:33:58.619Z,18.23
2022-11-24T03:36:25.480Z,18.21
2022-11-24T03:38:52.103Z,18.21
2022-11-24T03:41:18.646Z,18.20
2022-11-24T03:43:45.296Z,18.20
2022-11-24T03:46:12.689Z,18.19
2022-11-24T03:48:39.611Z,18.18
2022-11-24T03:51:07.048Z,18.17
2022-11-24T03:53:33.942Z,18.17
2022-11-24T03:56:02.090Z,18.15
2022-11-24T03:58:29.259Z,18.15
2022-11-24T04:00:56.288Z,18.12
2022-11-24T04:03:23.416Z,18.13
2022-11-24T04:05:50.318Z,18.12
2022-11-24T04:08:19.767Z,18.12
2022-11-24T04:10:50.290Z,18.12
2022-11-24T04:13:18.840Z,18.11
2022-11-24T04:15:45.533Z,18.09
2022-11-24T04:18:13.286Z,18.10
2022-11-24T04:20:41.224Z,18.09
2022-11-24T04:23:09.036Z,18.09
2022-11-24T04:25:35.968Z,18.08
2022-11-24T04:28:02.621Z,18.07
2022-11-24T04:30:29.798Z,18.08
2022-11-24T04:32:57.141Z,18.07
2022-11-24T04:35:23.657Z,18.07
2022-11-24T04:37:50.257Z,18.06
2022-11-24T04:40:17.235Z,18.02
2022-11-24T04:42:43.795Z,18.02
2022-11-24T04:45:11.475Z,18.02
2022-11-24T04:47:38.308Z,18.01
2022-11-24T04:50:07.693Z,18.00
2022-11-24T04:52:34.316Z,17.98
2022-11-24T04:55:00.823Z,18.01
2022-11-24T04:57:27.692Z,17.98
2022-11-24T04:59:56.055Z,17.96
2022-11-24T05:02:23.074Z,17.97
2022-11-24T05:04:49.763Z,17.95
2022-11-24T05:07:19.053Z,17.95
2022-11-24T05:10:05.167Z,17.95
2022-11-24T05:12:31.764Z,17.92
2022-11-24T05:14:59.325Z,17.92
2022-11-24T05:17:30.200Z,17.91
2022-11-24T05:19:57.267Z,17.94
2022-11-24T05:22:24.022Z,17.91
2022-11-24T05:24:50.556Z,17.90
2022-11-24T05:27:17.022Z,17.89
2022-11-24T05:29:43.529Z,17.90
2022-11-24T05:32:10.101Z,17.88
2022-11-24T05:34:37.554Z,17.87
2022-11-24T05:37:04.521Z,17.86
2022-11-24T05:39:35.825Z,17.85
2022-11-24T05:42:26.041Z,17.87
2022-11-24T05:44:53.647Z,17.87
2022-11-24T05:47:20.294Z,17.86
2022-11-24T05:49:46.827Z,17.86
2022-11-24T05:52:13.985Z,17.82
2022-11-24T05:54:40.546Z,17.88
2022-11-24T05:57:07.449Z,17.93
2022-11-24T05:59:34.118Z,18.00
2022-11-24T06:02:03.780Z,18.06
2022-11-24T06:04:30.313Z,18.16
2022-11-24T06:06:56.988Z,18.27
2022-11-24T06:09:23.442Z,18.37
2022-11-24T06:11:50.190Z,18.48
2022-11-24T06:14:16.613Z,18.58
2022-11-24T06:16:43.254Z,18.67
2022-11-24T06:19:11.031Z,18.79
2022-11-24T06:21:37.761Z,18.87
2022-11-24T06:24:05.215Z,18.96
2022-11-24T06:26:31.685Z,19.06
2022-11-24T06:28:58.165Z,19.15
2022-11-24T06:31:24.769Z,19.25
2022-11-24T06:33:51.474Z,19.36
2022-11-24T06:36:17.931Z,19.43
2022-11-24T06:38:44.517Z,19.53
2022-11-24T06:41:15.710Z,19.61
2022-11-24T06:43:42.690Z,19.69
2022-11-24T06:46:09.451Z,19.76
2022-11-24T06:48:36.003Z,19.82
2022-11-24T06:51:08.535Z,19.89
2022-11-24T06:53:40.033Z,19.96
2022-11-24T06:56:15.218Z,20.02
2022-11-24T06:58:45.085Z,20.10
2022-11-24T07:01:24.814Z,20.14
2022-11-24T07:03:52.497Z,20.21
2022-11-24T07:06:20.056Z,20.26
2022-11-24T07:08:47.053Z,20.31
2022-11-24T07:11:16.475Z,20.36
2022-11-24T07:13:43.355Z,20.42
2022-11-24T07:16:21.848Z,20.41
2022-11-24T07:18:51.283Z,20.47
2022-11-24T07:21:19.578Z,20.52
2022-11-24T07:23:53.183Z,20.58
2022-11-24T07:26:20.256Z,20.64
2022-11-24T07:28:47.300Z,20.68
2022-11-24T07:31:20.223Z,20.74
2022-11-24T07:33:50.798Z,20.80
2022-11-24T07:36:18.079Z,20.82
2022-11-24T07:38:44.626Z,20.90
2022-11-24T07:41:12.650Z,20.96
2022-11-24T07:43:39.678Z,21.04
2022-11-24T07:46:12.341Z,21.06
2022-11-24T07:48:38.872Z,21.11
2022-11-24T07:51:05.868Z,21.19
2022-11-24T07:53:33.232Z,21.27
2022-11-24T07:56:01.312Z,21.31
2022-11-24T07:58:33.425Z,21.39
2022-11-24T08:01:01.073Z,21.41
2022-11-24T08:03:27.926Z,21.46
2022-11-24T08:08:46.365Z,21.54
2022-11-24T08:11:15.976Z,21.57
2022-11-24T08:13:43.368Z,21.57
2022-11-24T08:16:12.011Z,21.64
2022-11-24T08:18:39.012Z,21.69
2022-11-24T08:21:06.779Z,21.70
2022-11-24T08:23:34.199Z,21.71
2022-11-24T08:26:08.847Z,21.73
2022-11-24T08:28:35.853Z,21.73
2022-11-24T08:31:08.425Z,21.73
2022-11-24T08:33:34.933Z,21.74
2022-11-24T08:36:09.738Z,21.76
2022-11-24T08:38:36.338Z,21.80
2022-11-24T08:41:04.920Z,21.79
2022-11-24T08:43:31.800Z,21.75
2022-11-24T08:46:06.590Z,21.76
2022-11-24T08:48:33.960Z,21.79
2022-11-24T08:51:07.600Z,21.84
2022-11-24T08:53:34.047Z,21.85
2022-11-24T08:56:01.038Z,21.86
2022-11-24T08:58:31.990Z,21.87
2022-11-24T09:01:13.950Z,21.86
2022-11-24T09:03:46.597Z,21.87
2022-11-24T09:06:18.103Z,21.90
2022-11-24T09:08:44.576Z,21.90
2022-11-24T09:11:13.391Z,21.91
2022-11-24T09:13:40.560Z,21.99
2022-11-24T09:16:10.457Z,22.02
2022-11-24T09:18:37.482Z,22.07
2022-11-24T09:21:15.270Z,22.12
2022-11-24T09:23:43.297Z,22.14
2022-11-24T09:26:16.023Z,22.14
2022-11-24T09:28:43.352Z,22.16
2022-11-24T09:31:13.199Z,22.21
2022-11-24T09:33:40.669Z,22.22
2022-11-24T09:36:07.789Z,22.18
2022-11-24T09:38:34.435Z,22.21
2022-11-24T09:41:15.195Z,22.21
2022-11-24T09:43:55.453Z,22.24
2022-11-24T09:47:02.847Z,22.25
2022-11-24T09:49:57.399Z,22.25
2022-11-24T09:53:01.239Z,22.29
2022-11-24T09:55:27.697Z,22.33
2022-11-24T09:58:17.959Z,22.38
2022-11-24T10:00:46.745Z,22.43
2022-11-24T10:03:23.347Z,22.46
2022-11-24T10:05:51.288Z,22.49
2022-11-24T10:08:29.498Z,22.49
2022-11-24T10:11:01.539Z,22.55
2022-11-24T10:13:54.291Z,22.56
2022-11-24T10:16:20.780Z,22.62
2022-11-24T10:19:14.454Z,22.65
2022-11-24T10:21:47.440Z,22.65
2022-11-24T10:24:26.082Z,22.67
2022-11-24T10:27:03.972Z,22.63
2022-11-24T10:29:41.738Z,22.63
2022-11-24T10:32:15.397Z,22.63
2022-11-24T10:34:45.668Z,22.64
2022-11-24T10:37:12.485Z,22.63
2022-11-24T10:40:00.231Z,22.66
2022-11-24T10:42:33.517Z,22.65
2022-11-24T10:45:02.161Z,22.71
2022-11-24T10:47:30.315Z,22.75
2022-11-24T10:50:15.096Z,22.78
2022-11-24T10:52:45.129Z,22.82
2022-11-24T10:55:11.631Z,22.86
2022-11-24T10:57:39.980Z,22.89
2022-11-24T11:00:26.738Z,22.87
2022-11-24T11:03:17.175Z,22.91
2022-11-24T11:06:05.422Z,22.95
2022-11-24T11:08:32.488Z,22.97
2022-11-24T11:11:23.748Z,22.98
2022-11-24T11:14:01.533Z,22.98
2022-11-24T11:16:36.163Z,22.99
2022-11-24T11:19:47.768Z,23.02
2022-11-24T11:22:11.477Z,23.03
2022-11-24T11:24:40.165Z,23.03
2022-11-24T11:27:24.967Z,22.96
2022-11-24T11:35:38.668Z,22.95
2022-11-24T11:38:06.909Z,22.95
2022-11-24T11:40:34.905Z,22.91
2022-11-24T11:43:27.462Z,22.87
2022-11-24T11:46:15.523Z,22.84
2022-11-24T11:48:46.729Z,22.81
2022-11-24T11:51:23.945Z,22.77
2022-11-24T11:54:20.137Z,22.73
2022-11-24T11:56:50.080Z,22.68
2022-11-24T11:59:33.181Z,22.65
2022-11-24T12:02:02.268Z,22.63
2022-11-24T12:04:52.776Z,22.56
2022-11-24T12:07:29.472Z,22.53
2022-11-24T12:10:14.139Z,22.49
2022-11-24T12:12:49.789Z,22.41
2022-11-24T12:15:28.459Z,22.37
2022-11-24T12:18:03.944Z,22.31
2022-11-24T12:21:08.274Z,22.24
2022-11-24T12:23:55.962Z,22.17
2022-11-24T12:26:46.441Z,22.10
2022-11-24T12:29:34.540Z,22.10
2022-11-24T12:32:47.099Z,22.06
2022-11-24T12:35:33.258Z,22.04
2022-11-24T12:38:32.495Z,22.01
2022-11-24T12:44:42.679Z,22.00
2022-11-24T12:47:14.077Z,21.97
2022-11-24T12:49:52.698Z,21.97
2022-11-24T12:52:25.321Z,21.97
2022-11-24T12:54:52.573Z,21.97
2022-11-24T12:57:23.787Z,21.95
2022-11-24T13:00:03.298Z,21.93
2022-11-24T13:02:47.622Z,21.91
2022-11-24T13:05:37.709Z,21.91
2022-11-24T13:08:05.865Z,21.93
2022-11-24T13:10:55.454Z,21.93
2022-11-24T13:13:28.016Z,21.91
2022-11-24T13:16:20.635Z,21.83
2022-11-24T13:18:47.815Z,21.84
2022-11-24T13:21:47.073Z,21.81
2022-11-24T13:26:50.725Z,21.83
2022-11-24T13:29:29.553Z,21.83
2022-11-24T13:32:18.988Z,21.83
2022-11-24T13:34:45.861Z,21.81
2022-11-24T13:37:35.882Z,21.78
2022-11-24T13:40:11.640Z,21.76
2022-11-24T13:42:57.339Z,21.76
2022-11-24T13:45:38.878Z,21.75
2022-11-24T13:48:21.153Z,21.74
2022-11-24T13:50:51.617Z,21.74
2022-11-24T13:53:38.501Z,21.72
2022-11-24T13:56:14.916Z,21.72
2022-11-24T13:58:49.889Z,21.71
2022-11-24T14:01:24.121Z,21.70
2022-11-24T14:04:28.631Z,21.69
2022-11-24T14:06:54.142Z,21.68
2022-11-24T14:09:28.299Z,21.66
2022-11-24T14:12:06.416Z,21.66
2022-11-24T14:14:33.272Z,21.65
2022-11-24T14:17:16.090Z,21.63
2022-11-24T14:19:44.608Z,21.65
2022-11-24T14:22:20.927Z,21.61
2022-11-24T14:24:56.551Z,21.60
2022-11-24T14:27:28.090Z,21.58
2022-11-24T14:29:57.591Z,21.57
2022-11-24T14:32:24.524Z,21.54
2022-11-24T14:34:52.212Z,21.55
2022-11-24T14:37:21.726Z,21.56
2022-11-24T14:39:48.230Z,21.54
2022-11-24T14:42:23.830Z,21.53
2022-11-24T14:44:55.601Z,21.54
2022-11-24T14:47:27.131Z,21.53
2022-11-24T14:50:05.732Z,21.52
2022-11-24T14:52:32.388Z,21.51
2022-11-24T14:55:21.261Z,21.48
2022-11-24T14:57:47.817Z,21.47
2022-11-24T15:00:26.943Z,21.45
2022-11-24T15:03:16.034Z,21.39
2022-11-24T15:05:59.459Z,21.37
2022-11-24T15:08:28.473Z,21.35
2022-11-24T15:11:00.349Z,21.30
2022-11-24T15:13:28.074Z,21.27
2022-11-24T15:16:02.528Z,21.24
2022-11-24T15:18:37.243Z,21.20
2022-11-24T15:21:03.784Z,21.16
2022-11-24T15:23:32.193Z,21.16
2022-11-24T15:26:18.893Z,21.08
2022-11-24T15:28:48.431Z,21.06
2022-11-24T15:31:15.112Z,21.01
2022-11-24T15:33:42.197Z,20.98
2022-11-24T15:36:08.729Z,20.96
2022-11-24T15:38:35.449Z,20.91
2022-11-24T15:41:02.299Z,20.90
2022-11-24T15:43:30.984Z,20.90
2022-11-24T15:45:58.682Z,20.86
2022-11-24T15:48:25.488Z,20.86
2022-11-24T15:50:52.704Z,20.83
2022-11-24T15:53:22.821Z,20.80
2022-11-24T15:55:50.462Z,20.78
2022-11-24T15:58:17.024Z,20.76
2022-11-24T16:00:44.492Z,20.75
2022-11-24T16:03:44.497Z,20.76
2022-11-24T16:05:58.096Z,20.76
2022-11-24T16:08:24.745Z,20.74
2022-11-24T16:10:51.362Z,20.73
2022-11-24T16:13:17.861Z,20.72
2022-11-24T16:15:45.706Z,20.72
2022-11-24T16:18:13.851Z,20.72
2022-11-24T16:20:40.421Z,20.72
2022-11-24T16:23:06.949Z,20.71
2022-11-24T16:25:33.616Z,20.72
2022-11-24T16:28:00.135Z,20.73
2022-11-24T16:30:26.732Z,20.73
2022-11-24T16:32:53.548Z,20.74
2022-11-24T16:35:20.187Z,20.74
2022-11-24T16:37:46.839Z,20.73
2022-11-24T16:40:13.573Z,20.73
2022-11-24T16:42:40.118Z,20.72
2022-11-24T16:45:07.198Z,20.72
2022-11-24T16:47:39.698Z,20.72
2022-11-24T16:50:07.824Z,20.73
2022-11-24T16:52:34.469Z,20.72
2022-11-24T16:55:01.711Z,20.71
2022-11-24T16:57:28.241Z,20.71
2022-11-24T16:59:54.771Z,20.72
2022-11-24T17:02:21.267Z,20.71
2022-11-24T17:04:49.652Z,20.70
2022-11-24T17:07:16.146Z,20.71
2022-11-24T17:09:42.692Z,20.72
2022-11-24T17:12:09.231Z,20.69
2022-11-24T17:14:36.951Z,20.69
2022-11-24T17:17:06.564Z,20.70
2022-11-24T17:19:33.103Z,20.69
2022-11-24T17:21:59.712Z,20.70
2022-11-24T17:24:29.498Z,20.70
2022-11-24T17:26:55.914Z,20.68
2022-11-24T17:29:22.409Z,20.69
2022-11-24T17:31:49.067Z,20.69
2022-11-24T17:34:15.664Z,20.69
2022-11-24T17:36:44.660Z,20.69
2022-11-24T17:39:11.353Z,20.69
2022-11-24T17:41:38.114Z,20.70
2022-11-24T17:44:04.624Z,20.68
2022-11-24T17:46:31.368Z,20.68
2022-11-24T17:48:58.445Z,20.69
2022-11-24T17:51:26.549Z,20.68
2022-11-24T17:53:54.256Z,20.69
2022-11-24T17:56:23.604Z,20.68
2022-11-24T17:58:58.312Z,20.68
2022-11-24T18:01:26.068Z,20.67
2022-11-24T18:03:54.066Z,20.68
2022-11-24T18:06:24.050Z,20.68
2022-11-24T18:08:51.349Z,20.67
2022-11-24T18:11:30.223Z,20.66
2022-11-24T18:14:01.390Z,20.68
2022-11-24T18:16:30.188Z,20.66
2022-11-24T18:19:07.983Z,20.65
2022-11-24T18:21:35.156Z,20.63
2022-11-24T18:24:01.826Z,20.63
2022-11-24T18:26:28.701Z,20.63
2022-11-24T18:28:55.234Z,20.62
2022-11-24T18:31:22.347Z,20.63
2022-11-24T18:33:48.925Z,20.62
2022-11-24T18:36:24.553Z,20.61
2022-11-24T18:39:03.442Z,20.62
2022-11-24T18:41:30.069Z,20.62
2022-11-24T18:44:07.206Z,20.61
2022-11-24T18:46:33.817Z,20.61
2022-11-24T18:49:00.418Z,20.62
2022-11-24T18:51:27.264Z,20.62
2022-11-24T18:54:00.021Z,20.63
2022-11-24T18:56:27.193Z,20.62
2022-11-24T18:58:57.644Z,20.62
2022-11-24T19:01:28.522Z,20.63
2022-11-24T19:04:01.706Z,20.62
2022-11-24T19:06:37.806Z,20.63
2022-11-24T19:09:05.595Z,20.63
2022-11-24T19:11:35.546Z,20.64
2022-11-24T19:14:04.145Z,20.62
2022-11-24T19:16:30.813Z,20.63
2022-11-24T19:18:59.977Z,20.61
2022-11-24T19:21:27.487Z,20.62
2022-11-24T19:23:54.024Z,20.62
2022-11-24T19:26:20.513Z,20.62
2022-11-24T19:28:47.450Z,20.62
2022-11-24T19:31:15.910Z,20.61
2022-11-24T19:33:43.153Z,20.60
2022-11-24T19:36:18.137Z,20.61
2022-11-24T19:38:53.212Z,20.61
2022-11-24T19:41:21.347Z,20.60
2022-11-24T19:43:48.464Z,20.58
2022-11-24T19:46:17.510Z,20.59
2022-11-24T19:48:54.120Z,20.60
2022-11-24T19:51:23.407Z,20.60
2022-11-24T19:53:49.965Z,20.61
2022-11-24T19:56:22.446Z,20.61
2022-11-24T19:58:49.993Z,20.61
2022-11-24T20:01:21.070Z,20.61
2022-11-24T20:03:53.148Z,20.60
2022-11-24T20:06:19.592Z,20.61
2022-11-24T20:08:46.018Z,20.61
2022-11-24T20:11:21.220Z,20.61
2022-11-24T20:13:49.735Z,20.62
2022-11-24T20:16:26.110Z,20.62
2022-11-24T20:18:54.772Z,20.62
2022-11-24T20:21:23.705Z,20.62
2022-11-24T20:23:55.606Z,20.62
2022-11-24T20:26:24.630Z,20.61
2022-11-24T20:28:53.703Z,20.61
2022-11-24T20:31:27.351Z,20.62
2022-11-24T20:33:54.011Z,20.63
2022-11-24T20:36:23.990Z,20.61
2022-11-24T20:38:52.030Z,20.61
2022-11-24T20:41:23.715Z,20.59
2022-11-24T20:43:51.478Z,20.60
2022-11-24T20:46:21.666Z,20.60
2022-11-24T20:48:49.109Z,20.59
2022-11-24T20:51:16.881Z,20.59
2022-11-24T20:53:43.483Z,20.58
2022-11-24T20:56:17.100Z,20.59
2022-11-24T20:58:43.641Z,20.57
2022-11-24T21:01:22.326Z,20.59
2022-11-24T21:03:53.191Z,20.59
2022-11-24T21:06:19.884Z,20.58
2022-11-24T21:08:46.433Z,20.59
2022-11-24T21:11:14.580Z,20.59
2022-11-24T21:13:44.323Z,20.60
2022-11-24T21:16:16.871Z,20.58
2022-11-24T21:18:44.914Z,20.60
2022-11-24T21:21:12.830Z,20.59
2022-11-24T21:23:40.194Z,20.58
2022-11-24T21:26:13.168Z,20.59
2022-11-24T21:28:44.216Z,20.58
2022-11-24T21:31:17.627Z,20.61
2022-11-24T21:33:49.167Z,20.60
2022-11-24T21:36:18.490Z,20.60
2022-11-24T21:38:52.882Z,20.60
2022-11-24T21:41:20.359Z,20.61
2022-11-24T21:43:46.938Z,20.61
2022-11-24T21:46:13.765Z,20.61
2022-11-24T21:48:41.777Z,20.60
2022-11-24T21:51:13.406Z,20.60
2022-11-24T21:53:41.096Z,20.60
2022-11-24T21:56:12.765Z,20.60
2022-11-24T21:58:47.590Z,20.60
2022-11-24T22:01:16.023Z,20.59
2022-11-24T22:03:43.104Z,20.59
2022-11-24T22:06:09.608Z,20.59
2022-11-24T22:08:36.102Z,20.58
2022-11-24T22:11:07.357Z,20.57
2022-11-24T22:13:34.181Z,20.57
2022-11-24T22:16:06.269Z,20.59
2022-11-24T22:18:38.027Z,20.59
2022-11-24T22:21:06.176Z,20.58
2022-11-24T22:23:33.785Z,20.59
2022-11-24T22:26:11.284Z,20.59
2022-11-24T22:28:38.243Z,20.58
2022-11-24T22:31:29.337Z,20.58
2022-11-24T22:33:56.949Z,20.57
2022-11-24T22:36:25.747Z,20.57
2022-11-24T22:38:57.308Z,20.55
2022-11-24T22:41:24.522Z,20.53
2022-11-24T22:43:51.276Z,20.50
2022-11-24T22:46:20.029Z,20.47
2022-11-24T22:48:48.240Z,20.43
2022-11-24T22:51:17.019Z,20.39
2022-11-24T22:53:48.593Z,20.33
2022-11-24T22:56:16.191Z,20.28
2022-11-24T22:58:43.272Z,20.23
2022-11-24T23:01:19.519Z,20.20
2022-11-24T23:03:46.823Z,20.16
2022-11-24T23:06:16.025Z,20.14
2022-11-24T23:08:43.065Z,20.10
2022-11-24T23:11:18.261Z,20.06
2022-11-24T23:13:44.891Z,20.04
2022-11-24T23:16:14.698Z,20.00
2022-11-24T23:18:41.923Z,19.97
2022-11-24T23:21:13.983Z,19.93
2022-11-24T23:23:40.922Z,19.90
2022-11-24T23:26:20.229Z,19.89
2022-11-24T23:28:46.872Z,19.87
2022-11-24T23:31:16.297Z,19.83
2022-11-24T23:33:43.193Z,19.81
2022-11-24T23:36:15.463Z,19.80
2022-11-24T23:38:42.792Z,19.77
2022-11-24T23:41:12.214Z,19.74
2022-11-24T23:43:40.428Z,19.71
2022-11-24T23:46:09.782Z,19.70
2022-11-24T23:48:37.007Z,19.67
2022-11-24T23:51:05.387Z,19.64
2022-11-24T23:53:33.320Z,19.61
2022-11-24T23:56:00.205Z,19.60
2022-11-24T23:58:26.969Z,19.58
